createdAt,value
2023-05-20T00:03:14.057Z,13.91
2023-05-20T00:08:16.957Z,13.89
2023-05-20T00:13:19.867Z,13.83
2023-05-20T00:18:24.109Z,13.75
2023-05-20T00:23:26.942Z,13.75
2023-05-20T00:28:30.705Z,13.68
2023-05-20T00:33:36.291Z,13.67
2023-05-20T00:38:39.460Z,13.61
2023-05-20T00:43:42.572Z,13.48
2023-05-20T00:48:46.842Z,13.46
2023-05-20T00:53:50.366Z,13.37
2023-05-20T00:58:53.502Z,13.30
2023-05-20T01:03:57.854Z,13.23
2023-05-20T01:09:01.090Z,13.17
2023-05-20T01:14:09.434Z,13.11
2023-05-20T01:19:28.246Z,13.05
2023-05-20T01:24:33.726Z,12.90
2023-05-20T01:29:36.746Z,12.85
2023-05-20T01:34:41.774Z,12.77
2023-05-20T01:39:47.691Z,12.74
2023-05-20T01:44:50.657Z,12.65
2023-05-20T01:49:54.234Z,12.56
2023-05-20T01:54:58.589Z,12.54
2023-05-20T02:00:01.504Z,12.53
2023-05-20T02:05:04.606Z,12.45
2023-05-20T02:10:09.986Z,12.34
2023-05-20T02:15:13.005Z,12.28
2023-05-20T02:20:17.696Z,12.24
2023-05-20T02:25:21.942Z,12.20
2023-05-20T02:30:24.780Z,12.12
2023-05-20T02:35:27.715Z,12.10
2023-05-20T02:40:32.255Z,12.00
2023-05-20T02:45:36.465Z,11.95
2023-05-20T02:50:40.384Z,11.90
2023-05-20T02:55:47.347Z,11.82
2023-05-20T03:00:50.587Z,11.71
2023-05-20T03:05:53.465Z,11.66
2023-05-20T03:10:57.680Z,11.68
2023-05-20T03:16:01.590Z,11.66
2023-05-20T03:21:04.532Z,11.63
2023-05-20T03:26:08.850Z,11.59
2023-05-20T03:31:12.081Z,11.61
2023-05-20T03:36:15.014Z,11.58
2023-05-20T03:41:19.531Z,11.56
2023-05-20T03:46:22.588Z,11.44
2023-05-20T03:51:25.890Z,11.40
2023-05-20T03:56:33.127Z,11.38
2023-05-20T04:01:37.347Z,11.36
2023-05-20T04:06:40.442Z,11.31
2023-05-20T04:11:44.761Z,11.28
2023-05-20T04:16:48.276Z,11.21
2023-05-20T04:21:51.121Z,11.16
2023-05-20T04:26:55.483Z,11.22
2023-05-20T04:31:59.313Z,11.25
2023-05-20T04:37:02.353Z,11.27
2023-05-20T04:42:07.105Z,11.36
2023-05-20T04:47:09.994Z,11.32
2023-05-20T04:52:14.469Z,11.29
2023-05-20T04:57:21.051Z,11.40
2023-05-20T05:02:24.411Z,11.54
2023-05-20T05:07:27.295Z,11.73
2023-05-20T05:12:31.630Z,12.00
2023-05-20T05:17:35.285Z,12.22
2023-05-20T05:22:39.737Z,12.37
2023-05-20T05:27:45.260Z,12.55
2023-05-20T05:32:48.436Z,12.60
2023-05-20T05:37:51.823Z,12.71
2023-05-20T05:42:56.054Z,12.71
2023-05-20T05:47:59.026Z,12.70
2023-05-20T05:53:02.305Z,12.69
2023-05-20T05:58:08.203Z,12.81
2023-05-20T06:03:11.418Z,13.05
2023-05-20T06:08:14.506Z,12.99
2023-05-20T06:13:19.438Z,13.20
2023-05-20T06:18:22.821Z,13.43
2023-05-20T06:23:30.955Z,13.57
2023-05-20T06:28:38.279Z,13.87
2023-05-20T06:33:41.491Z,14.10
2023-05-20T06:38:47.897Z,14.41
2023-05-20T06:43:54.246Z,14.35
2023-05-20T06:49:26.333Z,14.70
2023-05-20T06:54:30.392Z,15.03
2023-05-20T06:59:35.904Z,15.00
2023-05-20T07:04:40.349Z,15.26
2023-05-20T07:09:44.348Z,15.44
2023-05-20T07:14:48.741Z,15.67
2023-05-20T07:19:51.767Z,15.74
2023-05-20T07:24:55.277Z,15.75
2023-05-20T07:29:59.698Z,16.01
2023-05-20T07:35:02.758Z,16.40
2023-05-20T07:40:07.798Z,16.71
2023-05-20T07:45:12.654Z,17.27
2023-05-20T07:50:15.553Z,17.76
2023-05-20T07:55:19.371Z,18.76
2023-05-20T08:00:24.525Z,18.84
2023-05-20T08:05:27.610Z,18.27
2023-05-20T08:10:30.782Z,18.42
2023-05-20T08:15:36.929Z,18.03
2023-05-20T08:20:39.772Z,18.39
2023-05-20T08:25:42.650Z,18.14
2023-05-20T08:30:48.837Z,18.13
2023-05-20T08:35:51.797Z,18.43
2023-05-20T08:40:56.431Z,18.68
2023-05-20T08:46:03.064Z,18.53
2023-05-20T08:51:10.516Z,18.70
2023-05-20T08:56:14.922Z,19.00
2023-05-20T09:01:19.147Z,19.24
2023-05-20T09:06:21.984Z,19.54
2023-05-20T09:11:24.850Z,19.68
2023-05-20T09:16:29.337Z,20.19
2023-05-20T09:21:32.242Z,20.29
2023-05-20T09:26:35.114Z,20.29
2023-05-20T09:31:39.683Z,20.02
2023-05-20T09:36:44.604Z,20.37
2023-05-20T09:41:56.619Z,20.62
2023-05-20T09:47:02.380Z,21.40
2023-05-20T09:52:06.412Z,20.57
2023-05-20T09:57:10.324Z,20.46
2023-05-20T10:02:14.844Z,20.85
2023-05-20T10:07:42.330Z,20.78
2023-05-20T10:12:56.892Z,21.23
2023-05-20T10:18:12.337Z,21.80
2023-05-20T10:23:23.098Z,21.62
2023-05-20T10:28:36.178Z,21.81
2023-05-20T10:33:44.775Z,21.48
2023-05-20T10:38:53.744Z,20.79
2023-05-20T10:44:04.144Z,20.07
2023-05-20T10:49:19.092Z,20.42
2023-05-20T10:54:23.542Z,20.13
2023-05-20T10:59:27.429Z,20.05
2023-05-20T11:04:33.065Z,20.36
2023-05-20T11:09:36.006Z,19.18
2023-05-20T11:14:38.944Z,19.45
2023-05-20T11:19:43.140Z,19.01
2023-05-20T11:24:46.138Z,19.71
2023-05-20T11:29:51.175Z,19.83
2023-05-20T11:34:55.350Z,20.11
2023-05-20T11:40:07.958Z,20.77
2023-05-20T11:45:14.574Z,20.77
2023-05-20T11:50:19.944Z,21.04
2023-05-20T11:55:22.814Z,21.16
2023-05-20T12:00:27.581Z,21.57
2023-05-20T12:05:33.553Z,21.79
2023-05-20T12:10:37.630Z,21.54
2023-05-20T12:15:40.867Z,21.35
2023-05-20T12:20:45.050Z,21.23
2023-05-20T12:25:49.876Z,21.42
2023-05-20T12:30:52.968Z,20.85
2023-05-20T12:35:57.245Z,20.34
2023-05-20T12:41:00.138Z,20.46
2023-05-20T12:46:03.648Z,21.51
2023-05-20T12:51:07.997Z,22.82
2023-05-20T12:56:10.900Z,21.96
2023-05-20T13:01:13.757Z,22.41
2023-05-20T13:06:17.951Z,21.87
2023-05-20T13:11:21.705Z,21.91
2023-05-20T13:16:24.694Z,21.73
2023-05-20T13:21:29.090Z,21.30
2023-05-20T13:26:32.012Z,21.66
2023-05-20T13:31:35.060Z,22.64
2023-05-20T13:36:39.311Z,22.00
2023-05-20T13:41:42.204Z,21.69
2023-05-20T13:46:45.072Z,21.41
2023-05-20T13:51:49.283Z,23.75
2023-05-20T13:56:52.252Z,22.69
2023-05-20T14:01:55.237Z,22.63
2023-05-20T14:07:00.359Z,22.19
2023-05-20T14:12:03.551Z,21.44
2023-05-20T14:17:06.369Z,20.98
2023-05-20T14:22:10.554Z,20.36
2023-05-20T14:27:14.190Z,20.26
2023-05-20T14:32:17.065Z,21.12
2023-05-20T14:37:22.780Z,20.55
2023-05-20T14:42:25.699Z,20.21
2023-05-20T14:47:28.553Z,19.83
2023-05-20T14:52:32.765Z,19.67
2023-05-20T14:57:35.702Z,19.47
2023-05-20T15:02:38.791Z,19.32
2023-05-20T15:07:44.169Z,19.52
2023-05-20T15:12:47.654Z,19.24
2023-05-20T15:17:50.578Z,19.14
2023-05-20T15:22:55.001Z,19.24
2023-05-20T15:27:57.808Z,18.33
2023-05-20T15:33:01.252Z,18.08
2023-05-20T15:38:05.574Z,18.13
2023-05-20T15:43:09.008Z,18.02
2023-05-20T15:48:12.237Z,18.02
2023-05-20T15:53:16.852Z,17.89
2023-05-20T15:58:19.835Z,17.95
2023-05-20T16:03:22.740Z,18.02
2023-05-20T16:08:29.387Z,17.95
2023-05-20T16:13:32.384Z,17.89
2023-05-20T16:18:35.205Z,17.98
2023-05-20T16:23:39.582Z,18.21
2023-05-20T16:28:42.417Z,18.22
2023-05-20T16:33:45.666Z,18.16
2023-05-20T16:38:49.872Z,18.33
2023-05-20T16:43:52.851Z,18.12
2023-05-20T16:48:56.134Z,17.75
2023-05-20T16:54:00.363Z,17.62
2023-05-20T16:59:04.422Z,17.52
2023-05-20T17:04:07.309Z,17.47
2023-05-20T17:09:11.727Z,17.53
2023-05-20T17:14:14.637Z,17.55
2023-05-20T17:19:17.760Z,17.48
2023-05-20T17:24:21.963Z,17.50
2023-05-20T17:29:24.837Z,17.40
2023-05-20T17:34:27.677Z,17.41
2023-05-20T17:39:31.863Z,17.44
2023-05-20T17:44:34.766Z,17.55
2023-05-20T17:49:37.650Z,17.54
2023-05-20T17:54:41.926Z,17.61
2023-05-20T17:59:45.519Z,17.29
2023-05-20T18:04:48.415Z,17.21
2023-05-20T18:09:52.788Z,17.12
2023-05-20T18:14:55.776Z,17.07
2023-05-20T18:19:58.734Z,17.11
2023-05-20T18:25:03.025Z,17.11
2023-05-20T18:30:07.253Z,16.93
2023-05-20T18:35:11.268Z,16.73
2023-05-20T18:40:15.833Z,16.88
2023-05-20T18:45:18.724Z,16.86
2023-05-20T18:50:21.631Z,16.81
2023-05-20T18:55:26.336Z,16.83
2023-05-20T19:00:29.175Z,16.87
2023-05-20T19:05:32.222Z,16.75
2023-05-20T19:10:36.493Z,16.73
2023-05-20T19:15:39.323Z,16.68
2023-05-20T19:20:42.206Z,16.67
2023-05-20T19:25:46.777Z,16.57
2023-05-20T19:30:50.001Z,16.54
2023-05-20T19:35:52.946Z,16.56
2023-05-20T19:40:57.203Z,16.45
2023-05-20T19:46:00.572Z,16.36
2023-05-20T19:51:03.532Z,16.14
2023-05-20T19:56:08.899Z,16.04
2023-05-20T20:01:12.996Z,15.95
2023-05-20T20:06:15.890Z,15.89
2023-05-20T20:11:20.071Z,15.89
2023-05-20T20:16:22.929Z,15.83
2023-05-20T20:21:26.850Z,15.79
2023-05-20T20:26:31.030Z,15.78
2023-05-20T20:31:33.954Z,15.70
2023-05-20T20:36:37.146Z,15.69
2023-05-20T20:41:45.112Z,15.59
2023-05-20T20:46:51.197Z,15.50
2023-05-20T20:51:54.148Z,15.33
2023-05-20T20:57:00.009Z,15.30
2023-05-20T21:02:03.202Z,15.20
2023-05-20T21:07:06.124Z,15.14
2023-05-20T21:12:10.919Z,15.13
2023-05-20T21:17:14.053Z,15.18
2023-05-20T21:22:17.109Z,15.27
2023-05-20T21:27:21.326Z,15.27
2023-05-20T21:32:24.275Z,15.25
2023-05-20T21:37:27.167Z,15.26
2023-05-20T21:42:31.381Z,15.19
2023-05-20T21:47:34.316Z,15.15
2023-05-20T21:52:37.174Z,15.18
2023-05-20T21:57:41.682Z,15.17
2023-05-20T22:02:44.599Z,15.14
2023-05-20T22:07:47.798Z,15.12
2023-05-20T22:12:52.014Z,15.04
2023-05-20T22:17:55.359Z,14.94
2023-05-20T22:22:58.216Z,14.88
2023-05-20T22:28:04.522Z,14.77
2023-05-20T22:33:07.386Z,14.67
2023-05-20T22:38:10.324Z,14.58
2023-05-20T22:43:14.499Z,14.48
2023-05-20T22:48:17.400Z,14.40
2023-05-20T22:53:20.316Z,14.36
2023-05-20T22:58:24.464Z,14.35
2023-05-20T23:03:27.323Z,14.29
2023-05-20T23:08:30.243Z,14.31
2023-05-20T23:13:34.781Z,14.25
2023-05-20T23:18:37.668Z,14.23
2023-05-20T23:23:40.587Z,14.16
2023-05-20T23:28:44.856Z,14.10
2023-05-20T23:33:47.692Z,14.13
2023-05-20T23:38:51.559Z,14.09
2023-05-20T23:43:55.746Z,13.98
2023-05-20T23:49:00.314Z,13.90
2023-05-20T23:54:03.128Z,13.86
2023-05-20T23:59:07.299Z,13.75
